sensor_id;sensor_type;location;lat;lon;timestamp;pressure;altitude;pressure_sealevel;temperature
69435;BMP180;56625;54.322;18.582;2022-10-13T00:01:15;101804.60;;;10.70
69435;BMP180;56625;54.322;18.582;2022-10-13T00:03:45;101808.80;;;10.70
69435;BMP180;56625;54.322;18.582;2022-10-13T00:06:17;101803.20;;;10.70
69435;BMP180;56625;54.322;18.582;2022-10-13T00:08:46;101796.00;;;10.80
69435;BMP180;56625;54.322;18.582;2022-10-13T00:11:26;101789.00;;;10.90
69435;BMP180;56625;54.322;18.582;2022-10-13T00:13:57;101795.80;;;11.00
69435;BMP180;56625;54.322;18.582;2022-10-13T00:16:27;101800.20;;;10.96
69435;BMP180;56625;54.322;18.582;2022-10-13T00:18:56;101797.80;;;10.90
69435;BMP180;56625;54.322;18.582;2022-10-13T00:21:25;101796.00;;;10.90
69435;BMP180;56625;54.322;18.582;2022-10-13T00:23:54;101801.60;;;10.98
69435;BMP180;56625;54.322;18.582;2022-10-13T00:26:24;101794.40;;;10.90
69435;BMP180;56625;54.322;18.582;2022-10-13T00:28:54;101793.40;;;10.90
69435;BMP180;56625;54.322;18.582;2022-10-13T00:31:27;101796.00;;;10.90
69435;BMP180;56625;54.322;18.582;2022-10-13T00:34:00;101800.60;;;10.90
69435;BMP180;56625;54.322;18.582;2022-10-13T00:36:28;101799.60;;;10.90
69435;BMP180;56625;54.322;18.582;2022-10-13T00:38:57;101794.80;;;10.90
69435;BMP180;56625;54.322;18.582;2022-10-13T00:41:26;101797.40;;;10.82
69435;BMP180;56625;54.322;18.582;2022-10-13T00:44:00;101800.60;;;10.80
69435;BMP180;56625;54.322;18.582;2022-10-13T00:46:34;101797.00;;;10.80
69435;BMP180;56625;54.322;18.582;2022-10-13T00:49:11;101794.20;;;10.80
69435;BMP180;56625;54.322;18.582;2022-10-13T00:51:46;101795.60;;;10.80
69435;BMP180;56625;54.322;18.582;2022-10-13T00:54:21;101795.60;;;10.90
69435;BMP180;56625;54.322;18.582;2022-10-13T00:56:52;101794.60;;;10.94
69435;BMP180;56625;54.322;18.582;2022-10-13T00:59:25;101791.20;;;11.00
69435;BMP180;56625;54.322;18.582;2022-10-13T01:01:58;101790.00;;;10.90
69435;BMP180;56625;54.322;18.582;2022-10-13T01:04:33;101787.60;;;11.00
69435;BMP180;56625;54.322;18.582;2022-10-13T01:07:04;101784.40;;;11.10
69435;BMP180;56625;54.322;18.582;2022-10-13T01:09:33;101781.40;;;11.20
69435;BMP180;56625;54.322;18.582;2022-10-13T01:12:26;101774.80;;;11.20
69435;BMP180;56625;54.322;18.582;2022-10-13T01:26:31;101773.40;;;10.90
69435;BMP180;56625;54.322;18.582;2022-10-13T01:37:45;101769.00;;;11.10
69435;BMP180;56625;54.322;18.582;2022-10-13T01:40:27;101768.60;;;11.10
69435;BMP180;56625;54.322;18.582;2022-10-13T01:43:19;101764.40;;;11.10
69435;BMP180;56625;54.322;18.582;2022-10-13T01:46:00;101759.20;;;11.20
69435;BMP180;56625;54.322;18.582;2022-10-13T01:48:30;101759.00;;;11.20
69435;BMP180;56625;54.322;18.582;2022-10-13T01:50:59;101755.40;;;11.20
69435;BMP180;56625;54.322;18.582;2022-10-13T01:53:28;101751.60;;;11.20
69435;BMP180;56625;54.322;18.582;2022-10-13T01:55:59;101749.00;;;11.22
69435;BMP180;56625;54.322;18.582;2022-10-13T01:58:31;101751.00;;;11.30
69435;BMP180;56625;54.322;18.582;2022-10-13T02:09:49;101741.60;;;11.22
69435;BMP180;56625;54.322;18.582;2022-10-13T02:12:29;101747.60;;;11.10
69435;BMP180;56625;54.322;18.582;2022-10-13T02:15:00;101744.20;;;11.00
69435;BMP180;56625;54.322;18.582;2022-10-13T02:17:30;101737.20;;;11.10
69435;BMP180;56625;54.322;18.582;2022-10-13T02:19:58;101736.40;;;11.20
69435;BMP180;56625;54.322;18.582;2022-10-13T02:22:33;101732.20;;;11.30
69435;BMP180;56625;54.322;18.582;2022-10-13T02:25:04;101734.40;;;11.30
69435;BMP180;56625;54.322;18.582;2022-10-13T02:27:31;101731.60;;;11.26
69435;BMP180;56625;54.322;18.582;2022-10-13T02:29:59;101726.00;;;11.30
69435;BMP180;56625;54.322;18.582;2022-10-13T02:32:27;101728.20;;;11.30
69435;BMP180;56625;54.322;18.582;2022-10-13T02:34:55;101730.00;;;11.30
69435;BMP180;56625;54.322;18.582;2022-10-13T02:37:23;101723.60;;;11.30
69435;BMP180;56625;54.322;18.582;2022-10-13T02:39:53;101716.40;;;11.40
69435;BMP180;56625;54.322;18.582;2022-10-13T02:42:21;101719.80;;;11.40
69435;BMP180;56625;54.322;18.582;2022-10-13T02:44:50;101722.20;;;11.36
69435;BMP180;56625;54.322;18.582;2022-10-13T02:47:17;101720.20;;;11.30
69435;BMP180;56625;54.322;18.582;2022-10-13T02:49:45;101723.20;;;11.30
69435;BMP180;56625;54.322;18.582;2022-10-13T02:52:13;101719.60;;;11.30
69435;BMP180;56625;54.322;18.582;2022-10-13T02:54:41;101720.80;;;11.30
69435;BMP180;56625;54.322;18.582;2022-10-13T02:57:08;101720.80;;;11.20
69435;BMP180;56625;54.322;18.582;2022-10-13T02:59:36;101716.40;;;11.16
69435;BMP180;56625;54.322;18.582;2022-10-13T03:02:04;101714.80;;;11.10
69435;BMP180;56625;54.322;18.582;2022-10-13T03:04:32;101716.60;;;11.04
69435;BMP180;56625;54.322;18.582;2022-10-13T03:06:59;101716.20;;;10.90
69435;BMP180;56625;54.322;18.582;2022-10-13T03:09:27;101718.60;;;10.90
69435;BMP180;56625;54.322;18.582;2022-10-13T03:11:55;101717.20;;;11.00
69435;BMP180;56625;54.322;18.582;2022-10-13T03:14:23;101722.60;;;11.00
69435;BMP180;56625;54.322;18.582;2022-10-13T03:16:50;101713.40;;;11.00
69435;BMP180;56625;54.322;18.582;2022-10-13T03:19:18;101714.20;;;11.00
69435;BMP180;56625;54.322;18.582;2022-10-13T03:21:46;101714.40;;;11.00
69435;BMP180;56625;54.322;18.582;2022-10-13T03:24:14;101712.20;;;11.00
69435;BMP180;56625;54.322;18.582;2022-10-13T03:26:41;101712.40;;;11.00
69435;BMP180;56625;54.322;18.582;2022-10-13T03:29:14;101719.00;;;11.00
69435;BMP180;56625;54.322;18.582;2022-10-13T03:31:43;101716.20;;;11.00
69435;BMP180;56625;54.322;18.582;2022-10-13T03:34:13;101716.20;;;11.00
69435;BMP180;56625;54.322;18.582;2022-10-13T03:36:41;101713.40;;;11.00
69435;BMP180;56625;54.322;18.582;2022-10-13T03:39:09;101709.60;;;10.96
69435;BMP180;56625;54.322;18.582;2022-10-13T03:41:37;101705.40;;;10.90
69435;BMP180;56625;54.322;18.582;2022-10-13T03:44:05;101699.60;;;10.90
69435;BMP180;56625;54.322;18.582;2022-10-13T03:46:34;101699.80;;;10.90
69435;BMP180;56625;54.322;18.582;2022-10-13T03:49:01;101705.60;;;10.92
69435;BMP180;56625;54.322;18.582;2022-10-13T03:51:29;101697.80;;;10.90
69435;BMP180;56625;54.322;18.582;2022-10-13T03:53:57;101698.00;;;10.96
69435;BMP180;56625;54.322;18.582;2022-10-13T03:56:26;101698.80;;;11.00
69435;BMP180;56625;54.322;18.582;2022-10-13T03:58:57;101695.60;;;11.00
69435;BMP180;56625;54.322;18.582;2022-10-13T04:01:28;101693.20;;;11.08
69435;BMP180;56625;54.322;18.582;2022-10-13T04:03:59;101694.60;;;11.10
69435;BMP180;56625;54.322;18.582;2022-10-13T04:06:29;101693.20;;;11.10
69435;BMP180;56625;54.322;18.582;2022-10-13T04:08:57;101690.60;;;11.02
69435;BMP180;56625;54.322;18.582;2022-10-13T04:11:25;101691.40;;;11.00
69435;BMP180;56625;54.322;18.582;2022-10-13T04:13:55;101688.60;;;11.00
69435;BMP180;56625;54.322;18.582;2022-10-13T04:16:27;101688.20;;;11.00
69435;BMP180;56625;54.322;18.582;2022-10-13T04:19:03;101687.40;;;11.00
69435;BMP180;56625;54.322;18.582;2022-10-13T04:21:33;101686.80;;;11.00
69435;BMP180;56625;54.322;18.582;2022-10-13T04:24:02;101690.80;;;11.00
69435;BMP180;56625;54.322;18.582;2022-10-13T04:26:34;101688.80;;;11.00
69435;BMP180;56625;54.322;18.582;2022-10-13T04:29:04;101689.00;;;11.08
69435;BMP180;56625;54.322;18.582;2022-10-13T04:31:33;101684.40;;;11.04
69435;BMP180;56625;54.322;18.582;2022-10-13T04:34:01;101687.00;;;11.00
69435;BMP180;56625;54.322;18.582;2022-10-13T04:36:29;101681.20;;;11.00
69435;BMP180;56625;54.322;18.582;2022-10-13T04:38:57;101681.20;;;11.00
69435;BMP180;56625;54.322;18.582;2022-10-13T04:41:25;101676.00;;;11.00
69435;BMP180;56625;54.322;18.582;2022-10-13T04:43:53;101670.20;;;10.94
69435;BMP180;56625;54.322;18.582;2022-10-13T04:46:25;101670.20;;;10.90
69435;BMP180;56625;54.322;18.582;2022-10-13T04:48:53;101671.40;;;10.84
69435;BMP180;56625;54.322;18.582;2022-10-13T04:51:24;101668.60;;;10.80
69435;BMP180;56625;54.322;18.582;2022-10-13T04:53:58;101672.00;;;10.80
69435;BMP180;56625;54.322;18.582;2022-10-13T04:56:28;101670.60;;;10.80
69435;BMP180;56625;54.322;18.582;2022-10-13T04:58:56;101663.80;;;10.80
69435;BMP180;56625;54.322;18.582;2022-10-13T05:01:24;101669.00;;;10.70
69435;BMP180;56625;54.322;18.582;2022-10-13T05:03:55;101670.40;;;10.70
69435;BMP180;56625;54.322;18.582;2022-10-13T05:06:28;101676.20;;;10.60
69435;BMP180;56625;54.322;18.582;2022-10-13T05:08:56;101676.00;;;10.50
69435;BMP180;56625;54.322;18.582;2022-10-13T05:11:27;101675.40;;;10.50
69435;BMP180;56625;54.322;18.582;2022-10-13T05:13:56;101678.20;;;10.60
69435;BMP180;56625;54.322;18.582;2022-10-13T05:16:25;101675.00;;;10.50
69435;BMP180;56625;54.322;18.582;2022-10-13T05:18:54;101674.40;;;10.40
69435;BMP180;56625;54.322;18.582;2022-10-13T05:21:27;101673.80;;;10.40
69435;BMP180;56625;54.322;18.582;2022-10-13T05:23:56;101675.60;;;10.30
69435;BMP180;56625;54.322;18.582;2022-10-13T05:26:28;101675.20;;;10.30
69435;BMP180;56625;54.322;18.582;2022-10-13T05:29:01;101671.80;;;10.20
69435;BMP180;56625;54.322;18.582;2022-10-13T05:31:31;101669.00;;;10.30
69435;BMP180;56625;54.322;18.582;2022-10-13T05:34:00;101669.40;;;10.20
69435;BMP180;56625;54.322;18.582;2022-10-13T05:36:32;101673.20;;;10.10
69435;BMP180;56625;54.322;18.582;2022-10-13T05:39:05;101671.20;;;10.00
69435;BMP180;56625;54.322;18.582;2022-10-13T05:41:34;101671.20;;;9.90
69435;BMP180;56625;54.322;18.582;2022-10-13T05:44:06;101671.00;;;9.90
69435;BMP180;56625;54.322;18.582;2022-10-13T05:46:35;101668.80;;;9.80
69435;BMP180;56625;54.322;18.582;2022-10-13T05:49:03;101665.40;;;9.78
69435;BMP180;56625;54.322;18.582;2022-10-13T05:51:35;101665.80;;;9.70
69435;BMP180;56625;54.322;18.582;2022-10-13T05:54:29;101663.40;;;9.70
69435;BMP180;56625;54.322;18.582;2022-10-13T05:57:23;101659.00;;;9.70
69435;BMP180;56625;54.322;18.582;2022-10-13T06:00:00;101652.80;;;10.06
69435;BMP180;56625;54.322;18.582;2022-10-13T06:02:37;101653.40;;;10.50
69435;BMP180;56625;54.322;18.582;2022-10-13T06:05:13;101649.20;;;10.30
69435;BMP180;56625;54.322;18.582;2022-10-13T06:07:44;101645.40;;;10.16
69435;BMP180;56625;54.322;18.582;2022-10-13T06:10:14;101651.20;;;10.00
69435;BMP180;56625;54.322;18.582;2022-10-13T06:12:42;101662.40;;;9.90
69435;BMP180;56625;54.322;18.582;2022-10-13T06:15:10;101660.60;;;9.86
69435;BMP180;56625;54.322;18.582;2022-10-13T06:17:38;101658.20;;;9.80
69435;BMP180;56625;54.322;18.582;2022-10-13T06:20:08;101654.80;;;9.80
69435;BMP180;56625;54.322;18.582;2022-10-13T06:22:37;101662.00;;;9.80
69435;BMP180;56625;54.322;18.582;2022-10-13T06:25:06;101662.80;;;9.80
69435;BMP180;56625;54.322;18.582;2022-10-13T06:27:34;101664.40;;;9.88
69435;BMP180;56625;54.322;18.582;2022-10-13T06:30:03;101660.80;;;9.90
69435;BMP180;56625;54.322;18.582;2022-10-13T06:32:30;101658.80;;;10.00
69435;BMP180;56625;54.322;18.582;2022-10-13T06:34:58;101654.00;;;10.12
69435;BMP180;56625;54.322;18.582;2022-10-13T06:37:26;101651.20;;;10.30
69435;BMP180;56625;54.322;18.582;2022-10-13T06:39:54;101643.00;;;10.40
69435;BMP180;56625;54.322;18.582;2022-10-13T06:42:22;101640.20;;;10.40
69435;BMP180;56625;54.322;18.582;2022-10-13T06:44:50;101636.80;;;10.44
69435;BMP180;56625;54.322;18.582;2022-10-13T06:47:18;101630.80;;;10.50
69435;BMP180;56625;54.322;18.582;2022-10-13T06:49:45;101629.00;;;10.50
69435;BMP180;56625;54.322;18.582;2022-10-13T06:52:13;101629.80;;;10.50
69435;BMP180;56625;54.322;18.582;2022-10-13T06:54:41;101626.20;;;10.58
69435;BMP180;56625;54.322;18.582;2022-10-13T06:57:09;101621.20;;;10.70
69435;BMP180;56625;54.322;18.582;2022-10-13T06:59:36;101614.80;;;10.80
69435;BMP180;56625;54.322;18.582;2022-10-13T07:02:04;101620.00;;;10.80
69435;BMP180;56625;54.322;18.582;2022-10-13T07:04:32;101617.20;;;10.90
69435;BMP180;56625;54.322;18.582;2022-10-13T07:07:00;101618.00;;;10.90
69435;BMP180;56625;54.322;18.582;2022-10-13T07:09:28;101618.80;;;11.00
69435;BMP180;56625;54.322;18.582;2022-10-13T07:11:56;101615.20;;;11.10
69435;BMP180;56625;54.322;18.582;2022-10-13T07:14:24;101609.60;;;11.30
69435;BMP180;56625;54.322;18.582;2022-10-13T07:16:53;101599.00;;;11.40
69435;BMP180;56625;54.322;18.582;2022-10-13T07:19:21;101597.80;;;11.50
69435;BMP180;56625;54.322;18.582;2022-10-13T07:21:49;101592.80;;;11.40
69435;BMP180;56625;54.322;18.582;2022-10-13T07:24:17;101594.40;;;11.40
69435;BMP180;56625;54.322;18.582;2022-10-13T07:26:44;101595.20;;;11.46
69435;BMP180;56625;54.322;18.582;2022-10-13T07:29:12;101590.80;;;11.54
69435;BMP180;56625;54.322;18.582;2022-10-13T07:31:43;101585.40;;;11.60
69435;BMP180;56625;54.322;18.582;2022-10-13T07:34:11;101583.20;;;11.76
69435;BMP180;56625;54.322;18.582;2022-10-13T07:36:39;101583.20;;;11.90
69435;BMP180;56625;54.322;18.582;2022-10-13T07:39:08;101573.60;;;11.98
69435;BMP180;56625;54.322;18.582;2022-10-13T07:41:36;101579.20;;;12.08
69435;BMP180;56625;54.322;18.582;2022-10-13T07:44:04;101579.00;;;12.20
69435;BMP180;56625;54.322;18.582;2022-10-13T07:46:32;101573.80;;;12.30
69435;BMP180;56625;54.322;18.582;2022-10-13T07:49:00;101574.20;;;12.38
69435;BMP180;56625;54.322;18.582;2022-10-13T07:51:28;101571.20;;;12.60
69435;BMP180;56625;54.322;18.582;2022-10-13T07:53:56;101568.20;;;12.56
69435;BMP180;56625;54.322;18.582;2022-10-13T07:56:24;101556.80;;;12.60
69435;BMP180;56625;54.322;18.582;2022-10-13T07:58:51;101552.00;;;12.70
69435;BMP180;56625;54.322;18.582;2022-10-13T08:01:19;101539.20;;;12.80
69435;BMP180;56625;54.322;18.582;2022-10-13T08:03:47;101542.40;;;12.80
69435;BMP180;56625;54.322;18.582;2022-10-13T08:06:19;101544.00;;;13.00
69435;BMP180;56625;54.322;18.582;2022-10-13T08:08:50;101541.00;;;13.12
69435;BMP180;56625;54.322;18.582;2022-10-13T08:11:18;101534.40;;;13.30
69435;BMP180;56625;54.322;18.582;2022-10-13T08:13:52;101530.80;;;13.30
69435;BMP180;56625;54.322;18.582;2022-10-13T08:16:22;101531.00;;;13.30
69435;BMP180;56625;54.322;18.582;2022-10-13T08:18:50;101532.60;;;13.30
69435;BMP180;56625;54.322;18.582;2022-10-13T08:21:20;101527.20;;;13.44
69435;BMP180;56625;54.322;18.582;2022-10-13T08:24:15;101523.60;;;13.50
69435;BMP180;56625;54.322;18.582;2022-10-13T08:26:45;101526.60;;;13.50
69435;BMP180;56625;54.322;18.582;2022-10-13T08:29:14;101521.40;;;13.60
69435;BMP180;56625;54.322;18.582;2022-10-13T08:31:52;101514.60;;;13.70
69435;BMP180;56625;54.322;18.582;2022-10-13T08:34:22;101513.00;;;13.80
69435;BMP180;56625;54.322;18.582;2022-10-13T08:36:52;101509.00;;;13.80
69435;BMP180;56625;54.322;18.582;2022-10-13T08:39:24;101509.20;;;13.72
69435;BMP180;56625;54.322;18.582;2022-10-13T08:41:53;101500.40;;;13.72
69435;BMP180;56625;54.322;18.582;2022-10-13T08:44:37;101503.00;;;13.80
69435;BMP180;56625;54.322;18.582;2022-10-13T08:49:59;101497.60;;;13.90
69435;BMP180;56625;54.322;18.582;2022-10-13T08:55:28;101505.40;;;14.00
69435;BMP180;56625;54.322;18.582;2022-10-13T08:58:00;101512.80;;;13.90
69435;BMP180;56625;54.322;18.582;2022-10-13T09:00:29;101508.40;;;13.98
69435;BMP180;56625;54.322;18.582;2022-10-13T09:06:14;101511.80;;;14.10
69435;BMP180;56625;54.322;18.582;2022-10-13T09:08:57;101512.40;;;14.00
69435;BMP180;56625;54.322;18.582;2022-10-13T09:11:34;101514.60;;;14.08
69435;BMP180;56625;54.322;18.582;2022-10-13T09:14:08;101512.80;;;14.10
69435;BMP180;56625;54.322;18.582;2022-10-13T09:16:43;101512.00;;;14.10
69435;BMP180;56625;54.322;18.582;2022-10-13T09:19:32;101509.40;;;14.14
69435;BMP180;56625;54.322;18.582;2022-10-13T09:22:22;101504.20;;;14.20
69435;BMP180;56625;54.322;18.582;2022-10-13T09:27:56;101505.00;;;14.40
69435;BMP180;56625;54.322;18.582;2022-10-13T09:30:45;101494.60;;;14.40
69435;BMP180;56625;54.322;18.582;2022-10-13T09:33:22;101493.40;;;14.60
69435;BMP180;56625;54.322;18.582;2022-10-13T09:38:29;101490.80;;;15.00
69435;BMP180;56625;54.322;18.582;2022-10-13T09:41:02;101490.20;;;15.02
69435;BMP180;56625;54.322;18.582;2022-10-13T09:46:48;101469.00;;;15.08
69435;BMP180;56625;54.322;18.582;2022-10-13T09:49:41;101482.40;;;15.20
69435;BMP180;56625;54.322;18.582;2022-10-13T09:54:51;101482.20;;;15.10
69435;BMP180;56625;54.322;18.582;2022-10-13T09:57:42;101480.00;;;15.00
69435;BMP180;56625;54.322;18.582;2022-10-13T10:00:26;101472.60;;;15.10
69435;BMP180;56625;54.322;18.582;2022-10-13T10:03:03;101471.80;;;15.10
69435;BMP180;56625;54.322;18.582;2022-10-13T10:05:56;101472.40;;;15.30
69435;BMP180;56625;54.322;18.582;2022-10-13T10:08:52;101464.40;;;15.40
69435;BMP180;56625;54.322;18.582;2022-10-13T10:11:40;101462.00;;;15.40
69435;BMP180;56625;54.322;18.582;2022-10-13T10:14:21;101461.40;;;15.50
69435;BMP180;56625;54.322;18.582;2022-10-13T10:17:32;101453.60;;;15.40
69435;BMP180;56625;54.322;18.582;2022-10-13T10:26:13;101436.00;;;15.74
69435;BMP180;56625;54.322;18.582;2022-10-13T10:29:25;101438.80;;;15.70
69435;BMP180;56625;54.322;18.582;2022-10-13T10:43:55;101388.80;;;15.90
69435;BMP180;56625;54.322;18.582;2022-10-13T10:46:49;101388.80;;;15.90
69435;BMP180;56625;54.322;18.582;2022-10-13T10:49:26;101388.60;;;16.10
69435;BMP180;56625;54.322;18.582;2022-10-13T10:51:58;101380.20;;;16.12
69435;BMP180;56625;54.322;18.582;2022-10-13T10:54:50;101392.00;;;16.20
69435;BMP180;56625;54.322;18.582;2022-10-13T11:00:18;101383.40;;;16.00
69435;BMP180;56625;54.322;18.582;2022-10-13T11:08:46;101395.60;;;16.10
69435;BMP180;56625;54.322;18.582;2022-10-13T11:14:01;101383.40;;;16.00
69435;BMP180;56625;54.322;18.582;2022-10-13T11:19:38;101387.20;;;16.00
69435;BMP180;56625;54.322;18.582;2022-10-13T11:27:21;101390.20;;;16.10
69435;BMP180;56625;54.322;18.582;2022-10-13T11:29:55;101386.80;;;16.20
69435;BMP180;56625;54.322;18.582;2022-10-13T11:35:19;101373.00;;;16.24
69435;BMP180;56625;54.322;18.582;2022-10-13T11:43:57;101362.20;;;16.30
69435;BMP180;56625;54.322;18.582;2022-10-13T11:49:43;101351.20;;;16.40
69435;BMP180;56625;54.322;18.582;2022-10-13T11:55:14;101345.80;;;16.40
69435;BMP180;56625;54.322;18.582;2022-10-13T11:57:44;101334.60;;;16.50
69435;BMP180;56625;54.322;18.582;2022-10-13T12:00:16;101339.00;;;16.54
69435;BMP180;56625;54.322;18.582;2022-10-13T12:02:52;101333.80;;;16.60
69435;BMP180;56625;54.322;18.582;2022-10-13T12:05:25;101334.80;;;16.60
69435;BMP180;56625;54.322;18.582;2022-10-13T12:08:00;101338.60;;;16.60
69435;BMP180;56625;54.322;18.582;2022-10-13T12:10:34;101341.00;;;16.60
69435;BMP180;56625;54.322;18.582;2022-10-13T12:13:03;101338.80;;;16.62
69435;BMP180;56625;54.322;18.582;2022-10-13T12:15:42;101335.00;;;16.60
69435;BMP180;56625;54.322;18.582;2022-10-13T12:18:30;101337.40;;;16.50
69435;BMP180;56625;54.322;18.582;2022-10-13T12:21:23;101332.80;;;16.20
69435;BMP180;56625;54.322;18.582;2022-10-13T12:24:07;101331.00;;;16.10
69435;BMP180;56625;54.322;18.582;2022-10-13T12:26:36;101334.40;;;16.20
69435;BMP180;56625;54.322;18.582;2022-10-13T12:29:12;101327.60;;;16.10
69435;BMP180;56625;54.322;18.582;2022-10-13T12:31:47;101319.80;;;16.10
69435;BMP180;56625;54.322;18.582;2022-10-13T12:37:02;101322.60;;;16.20
69435;BMP180;56625;54.322;18.582;2022-10-13T12:39:33;101316.80;;;16.30
69435;BMP180;56625;54.322;18.582;2022-10-13T12:42:03;101315.20;;;16.30
69435;BMP180;56625;54.322;18.582;2022-10-13T12:44:33;101309.40;;;16.36
69435;BMP180;56625;54.322;18.582;2022-10-13T12:47:03;101317.40;;;16.30
69435;BMP180;56625;54.322;18.582;2022-10-13T12:49:35;101319.00;;;16.20
69435;BMP180;56625;54.322;18.582;2022-10-13T12:52:14;101312.80;;;16.24
69435;BMP180;56625;54.322;18.582;2022-10-13T12:54:52;101313.80;;;16.22
69435;BMP180;56625;54.322;18.582;2022-10-13T12:57:35;101313.40;;;16.18
69435;BMP180;56625;54.322;18.582;2022-10-13T13:00:26;101305.60;;;16.00
69435;BMP180;56625;54.322;18.582;2022-10-13T13:03:02;101300.40;;;15.90
69435;BMP180;56625;54.322;18.582;2022-10-13T13:05:38;101300.40;;;16.00
69435;BMP180;56625;54.322;18.582;2022-10-13T13:08:28;101303.40;;;16.00
69435;BMP180;56625;54.322;18.582;2022-10-13T13:10:59;101303.00;;;16.10
69435;BMP180;56625;54.322;18.582;2022-10-13T13:13:29;101300.00;;;16.10
69435;BMP180;56625;54.322;18.582;2022-10-13T13:16:17;101294.80;;;16.00
69435;BMP180;56625;54.322;18.582;2022-10-13T13:18:50;101293.20;;;16.00
69435;BMP180;56625;54.322;18.582;2022-10-13T13:21:18;101290.00;;;16.00
69435;BMP180;56625;54.322;18.582;2022-10-13T13:23:47;101293.20;;;16.10
69435;BMP180;56625;54.322;18.582;2022-10-13T13:26:22;101284.20;;;16.00
69435;BMP180;56625;54.322;18.582;2022-10-13T13:28:54;101289.20;;;16.00
69435;BMP180;56625;54.322;18.582;2022-10-13T13:31:24;101284.60;;;15.90
69435;BMP180;56625;54.322;18.582;2022-10-13T13:33:52;101281.80;;;15.92
69435;BMP180;56625;54.322;18.582;2022-10-13T13:36:24;101283.20;;;16.00
69435;BMP180;56625;54.322;18.582;2022-10-13T13:38:53;101280.60;;;16.00
69435;BMP180;56625;54.322;18.582;2022-10-13T13:41:22;101283.60;;;16.00
69435;BMP180;56625;54.322;18.582;2022-10-13T13:43:54;101280.60;;;16.10
69435;BMP180;56625;54.322;18.582;2022-10-13T13:46:24;101278.20;;;16.10
69435;BMP180;56625;54.322;18.582;2022-10-13T13:48:54;101273.40;;;16.10
69435;BMP180;56625;54.322;18.582;2022-10-13T13:51:21;101274.60;;;16.00
69435;BMP180;56625;54.322;18.582;2022-10-13T13:53:49;101268.20;;;16.00
69435;BMP180;56625;54.322;18.582;2022-10-13T13:56:19;101268.00;;;16.00
69435;BMP180;56625;54.322;18.582;2022-10-13T13:58:47;101263.00;;;15.94
69435;BMP180;56625;54.322;18.582;2022-10-13T14:01:15;101257.40;;;15.90
69435;BMP180;56625;54.322;18.582;2022-10-13T14:03:43;101259.00;;;15.90
69435;BMP180;56625;54.322;18.582;2022-10-13T14:06:17;101258.60;;;15.90
69435;BMP180;56625;54.322;18.582;2022-10-13T14:08:45;101259.60;;;15.80
69435;BMP180;56625;54.322;18.582;2022-10-13T14:11:13;101259.00;;;15.74
69435;BMP180;56625;54.322;18.582;2022-10-13T14:13:41;101258.80;;;15.70
69435;BMP180;56625;54.322;18.582;2022-10-13T14:16:16;101259.20;;;15.70
69435;BMP180;56625;54.322;18.582;2022-10-13T14:18:44;101260.00;;;15.60
69435;BMP180;56625;54.322;18.582;2022-10-13T14:21:13;101255.60;;;15.68
69435;BMP180;56625;54.322;18.582;2022-10-13T14:23:41;101259.40;;;15.60
69435;BMP180;56625;54.322;18.582;2022-10-13T14:26:14;101260.80;;;15.60
69435;BMP180;56625;54.322;18.582;2022-10-13T14:28:43;101259.20;;;15.60
69435;BMP180;56625;54.322;18.582;2022-10-13T14:31:11;101256.80;;;15.50
69435;BMP180;56625;54.322;18.582;2022-10-13T14:33:40;101254.60;;;15.50
69435;BMP180;56625;54.322;18.582;2022-10-13T14:36:08;101248.80;;;15.22
69435;BMP180;56625;54.322;18.582;2022-10-13T14:38:36;101249.00;;;15.10
69435;BMP180;56625;54.322;18.582;2022-10-13T14:41:05;101252.20;;;15.00
69435;BMP180;56625;54.322;18.582;2022-10-13T14:43:33;101254.00;;;14.90
69435;BMP180;56625;54.322;18.582;2022-10-13T14:46:04;101258.20;;;14.80
69435;BMP180;56625;54.322;18.582;2022-10-13T14:48:35;101258.80;;;14.68
69435;BMP180;56625;54.322;18.582;2022-10-13T14:51:08;101257.00;;;14.54
69435;BMP180;56625;54.322;18.582;2022-10-13T15:01:22;101251.60;;;14.28
69435;BMP180;56625;54.322;18.582;2022-10-13T15:05:58;101253.80;;;14.10
69435;BMP180;56625;54.322;18.582;2022-10-13T15:08:59;101259.00;;;14.00
69435;BMP180;56625;54.322;18.582;2022-10-13T15:22:53;101241.00;;;13.80
69435;BMP180;56625;54.322;18.582;2022-10-13T15:25:21;101251.80;;;13.72
69435;BMP180;56625;54.322;18.582;2022-10-13T15:27:48;101247.40;;;13.70
69435;BMP180;56625;54.322;18.582;2022-10-13T15:30:16;101250.60;;;13.60
69435;BMP180;56625;54.322;18.582;2022-10-13T15:32:48;101254.80;;;13.60
69435;BMP180;56625;54.322;18.582;2022-10-13T15:35:16;101260.00;;;13.58
69435;BMP180;56625;54.322;18.582;2022-10-13T15:37:44;101249.80;;;13.50
69435;BMP180;56625;54.322;18.582;2022-10-13T15:40:12;101254.20;;;13.50
69435;BMP180;56625;54.322;18.582;2022-10-13T15:42:40;101249.60;;;13.42
69435;BMP180;56625;54.322;18.582;2022-10-13T15:45:08;101250.80;;;13.40
69435;BMP180;56625;54.322;18.582;2022-10-13T15:47:38;101250.40;;;13.40
69435;BMP180;56625;54.322;18.582;2022-10-13T15:50:07;101250.80;;;13.36
69435;BMP180;56625;54.322;18.582;2022-10-13T15:52:38;101252.60;;;13.30
69435;BMP180;56625;54.322;18.582;2022-10-13T15:55:10;101247.80;;;13.30
69435;BMP180;56625;54.322;18.582;2022-10-13T15:57:38;101253.40;;;13.30
69435;BMP180;56625;54.322;18.582;2022-10-13T16:00:09;101251.20;;;13.20
69435;BMP180;56625;54.322;18.582;2022-10-13T16:02:42;101259.00;;;13.20
69435;BMP180;56625;54.322;18.582;2022-10-13T16:05:12;101257.20;;;13.20
69435;BMP180;56625;54.322;18.582;2022-10-13T16:07:43;101261.60;;;13.10
69435;BMP180;56625;54.322;18.582;2022-10-13T16:10:14;101259.20;;;13.10
69435;BMP180;56625;54.322;18.582;2022-10-13T16:12:43;101257.20;;;13.08
69435;BMP180;56625;54.322;18.582;2022-10-13T16:15:16;101256.20;;;13.10
69435;BMP180;56625;54.322;18.582;2022-10-13T16:17:45;101257.60;;;13.00